createdAt,value
2023-01-26T00:01:24.158Z,52.88
2023-01-26T00:05:46.157Z,58.03
2023-01-26T00:10:09.300Z,57.20
2023-01-26T00:14:50.062Z,55.33
2023-01-26T00:19:12.145Z,55.03
2023-01-26T00:23:35.974Z,47.85
2023-01-26T00:27:58.295Z,52.45
2023-01-26T00:32:20.143Z,49.80
2023-01-26T00:36:43.349Z,53.92
2023-01-26T00:41:06.025Z,58.92
2023-01-26T00:45:28.124Z,59.80
2023-01-26T00:49:49.820Z,58.38
2023-01-26T00:54:12.084Z,57.85
2023-01-26T00:58:34.486Z,57.95
2023-01-26T01:02:57.212Z,60.15
2023-01-26T01:07:19.109Z,59.47
2023-01-26T01:11:41.128Z,58.65
2023-01-26T01:16:12.820Z,58.67
2023-01-26T01:20:34.994Z,63.38
2023-01-26T01:24:57.726Z,53.70
2023-01-26T01:29:19.695Z,59.83
2023-01-26T01:33:43.081Z,49.40
2023-01-26T01:38:05.383Z,57.05
2023-01-26T01:42:27.932Z,53.58
2023-01-26T01:47:03.358Z,52.63
2023-01-26T01:51:42.043Z,51.22
2023-01-26T01:56:12.412Z,52.03
2023-01-26T02:00:34.477Z,54.08
2023-01-26T02:05:04.642Z,52.03
2023-01-26T02:09:53.291Z,53.67
2023-01-26T02:14:17.195Z,54.67
2023-01-26T02:18:39.603Z,55.88
2023-01-26T02:23:43.247Z,57.70
2023-01-26T02:28:06.904Z,55.05
2023-01-26T02:32:29.149Z,54.47
2023-01-26T02:36:59.804Z,57.28
2023-01-26T02:41:40.470Z,56.38
2023-01-26T02:46:05.798Z,58.08
2023-01-26T02:50:33.021Z,60.55
2023-01-26T02:55:14.454Z,57.85
2023-01-26T02:59:36.781Z,60.10
2023-01-26T03:03:59.223Z,58.22
2023-01-26T03:08:21.498Z,55.20
2023-01-26T03:12:43.831Z,56.58
2023-01-26T03:17:05.813Z,58.10
2023-01-26T03:21:46.738Z,59.45
2023-01-26T03:26:29.523Z,61.28
2023-01-26T03:30:54.710Z,69.97
2023-01-26T03:35:22.839Z,65.82
2023-01-26T03:40:04.349Z,66.38
2023-01-26T03:44:45.571Z,65.18
2023-01-26T03:49:26.491Z,62.30
2023-01-26T03:54:08.914Z,62.33
2023-01-26T03:58:34.046Z,65.82
2023-01-26T04:03:14.984Z,63.97
2023-01-26T04:07:56.336Z,65.72
2023-01-26T04:12:19.495Z,69.30
2023-01-26T04:17:26.753Z,78.93
2023-01-26T04:21:49.475Z,77.60
2023-01-26T04:26:16.643Z,84.50
2023-01-26T04:30:39.533Z,88.82
2023-01-26T04:35:02.269Z,76.32
2023-01-26T04:39:28.162Z,84.53
2023-01-26T04:43:51.962Z,73.30
2023-01-26T04:48:14.470Z,69.00
2023-01-26T04:52:37.191Z,76.30
2023-01-26T04:57:00.516Z,72.70
2023-01-26T05:01:23.327Z,79.75
2023-01-26T05:05:49.858Z,79.68
2023-01-26T05:10:15.707Z,76.78
2023-01-26T05:14:47.964Z,78.13
2023-01-26T05:19:36.341Z,86.70
2023-01-26T05:24:17.505Z,82.22
2023-01-26T05:28:54.968Z,91.30
2023-01-26T05:33:22.206Z,88.53
2023-01-26T05:37:46.076Z,82.00
2023-01-26T05:42:11.776Z,87.15
2023-01-26T05:46:57.727Z,87.93
2023-01-26T05:51:20.276Z,92.88
2023-01-26T05:55:42.069Z,93.45
2023-01-26T06:00:07.326Z,98.30
2023-01-26T06:04:35.669Z,89.53
2023-01-26T06:08:59.582Z,83.80
2023-01-26T06:13:27.446Z,90.90
2023-01-26T06:17:57.946Z,93.57
2023-01-26T06:22:20.979Z,85.22
2023-01-26T06:26:49.577Z,78.38
2023-01-26T06:31:13.522Z,81.47
2023-01-26T06:35:36.530Z,83.38
2023-01-26T06:40:01.258Z,85.13
2023-01-26T06:44:23.342Z,82.75
2023-01-26T06:48:46.082Z,85.10
2023-01-26T06:53:37.973Z,76.78
2023-01-26T06:58:21.206Z,87.25
2023-01-26T07:02:42.992Z,90.53
2023-01-26T07:07:05.208Z,91.82
2023-01-26T07:11:30.335Z,86.55
2023-01-26T07:15:52.441Z,83.88
2023-01-26T07:20:14.650Z,86.32
2023-01-26T07:24:36.721Z,89.20
2023-01-26T07:28:58.917Z,74.63
2023-01-26T07:33:21.202Z,82.90
2023-01-26T07:37:43.337Z,95.30
2023-01-26T07:42:05.318Z,80.40
2023-01-26T07:46:43.601Z,80.50
2023-01-26T07:51:09.392Z,86.00
2023-01-26T07:55:31.442Z,89.22
2023-01-26T07:59:53.994Z,81.18
2023-01-26T08:04:16.149Z,80.05
2023-01-26T08:08:40.204Z,83.95
2023-01-26T08:13:02.491Z,79.00
2023-01-26T08:17:24.566Z,74.93
2023-01-26T08:21:46.629Z,73.22
2023-01-26T08:26:12.802Z,78.47
2023-01-26T08:30:36.866Z,76.63
2023-01-26T08:34:59.107Z,74.70
2023-01-26T08:39:21.077Z,69.95
2023-01-26T08:43:43.045Z,67.47
2023-01-26T08:48:07.063Z,69.90
2023-01-26T08:52:29.027Z,66.68
2023-01-26T08:56:50.993Z,76.40
2023-01-26T09:01:16.436Z,71.22
2023-01-26T09:05:40.151Z,68.15
2023-01-26T09:10:02.251Z,68.97
2023-01-26T09:14:24.602Z,57.45
2023-01-26T09:18:51.336Z,59.75
2023-01-26T09:23:13.972Z,53.78
2023-01-26T09:27:36.927Z,52.28
2023-01-26T09:31:59.476Z,61.42
2023-01-26T09:36:21.408Z,55.08
2023-01-26T09:40:56.330Z,59.80
2023-01-26T09:45:26.401Z,65.07
2023-01-26T09:50:03.033Z,58.35
2023-01-26T09:54:43.895Z,59.30
2023-01-26T09:59:19.520Z,58.42
2023-01-26T10:04:18.588Z,56.92
2023-01-26T10:08:43.746Z,60.35
2023-01-26T10:13:06.298Z,48.08
2023-01-26T10:17:43.803Z,56.95
2023-01-26T10:22:43.892Z,54.17
2023-01-26T10:27:15.029Z,61.60
2023-01-26T10:31:36.912Z,59.20
2023-01-26T10:36:01.732Z,50.95
2023-01-26T10:40:24.075Z,52.17
2023-01-26T10:44:47.267Z,56.08
2023-01-26T10:49:09.724Z,57.83
2023-01-26T10:53:31.669Z,50.33
2023-01-26T10:57:54.262Z,53.90
2023-01-26T11:02:16.856Z,48.30
2023-01-26T11:06:39.546Z,47.38
2023-01-26T11:11:03.984Z,51.13
2023-01-26T11:15:29.129Z,50.67
2023-01-26T11:20:36.104Z,50.28
2023-01-26T11:25:03.797Z,53.28
2023-01-26T11:29:31.272Z,50.58
2023-01-26T11:34:38.616Z,45.28
2023-01-26T11:39:27.749Z,46.28
2023-01-26T11:44:08.224Z,48.20
2023-01-26T11:48:32.769Z,41.67
2023-01-26T11:53:35.230Z,39.67
2023-01-26T11:58:28.516Z,44.88
2023-01-26T12:03:12.431Z,39.92
2023-01-26T12:08:11.226Z,43.60
2023-01-26T12:13:00.030Z,41.63
2023-01-26T12:17:53.888Z,37.33
2023-01-26T12:22:34.359Z,37.97
2023-01-26T12:26:56.947Z,36.28
2023-01-26T12:31:48.775Z,37.22
2023-01-26T12:36:54.567Z,45.35
2023-01-26T12:41:35.810Z,40.92
2023-01-26T12:46:00.655Z,36.30
2023-01-26T12:50:46.052Z,39.15
2023-01-26T12:55:45.356Z,36.45
2023-01-26T13:00:31.127Z,33.53
2023-01-26T13:04:53.776Z,38.38
2023-01-26T13:09:26.107Z,35.85
2023-01-26T13:13:56.195Z,32.38
2023-01-26T13:18:18.727Z,38.78
2023-01-26T13:22:41.815Z,59.20
2023-01-26T13:27:23.556Z,42.58
2023-01-26T13:31:45.459Z,31.35
2023-01-26T13:36:17.407Z,32.92
2023-01-26T13:40:46.547Z,33.35
2023-01-26T13:45:39.348Z,35.25
2023-01-26T13:50:01.100Z,32.20
2023-01-26T13:54:25.867Z,34.33
2023-01-26T13:58:47.788Z,34.17
2023-01-26T14:03:22.510Z,38.53
2023-01-26T14:07:45.223Z,35.08
2023-01-26T14:12:08.615Z,30.70
2023-01-26T14:16:37.892Z,29.80
2023-01-26T14:21:19.587Z,32.65
2023-01-26T14:26:42.186Z,30.58
2023-01-26T14:31:22.009Z,26.85
2023-01-26T14:36:03.512Z,29.35
2023-01-26T14:40:26.109Z,26.52
2023-01-26T14:44:48.327Z,28.58
2023-01-26T14:49:22.307Z,27.58
2023-01-26T14:53:57.829Z,24.38
2023-01-26T14:58:29.855Z,28.67
2023-01-26T15:02:55.979Z,26.73
2023-01-26T15:07:51.011Z,31.73
2023-01-26T15:12:17.791Z,26.58
2023-01-26T15:16:53.496Z,23.58
2023-01-26T15:21:20.955Z,27.63
2023-01-26T15:25:43.225Z,27.90
2023-01-26T15:30:08.207Z,28.50
2023-01-26T15:34:39.349Z,27.50
2023-01-26T15:39:18.655Z,29.73
2023-01-26T15:43:40.648Z,25.45
2023-01-26T15:48:02.608Z,32.13
2023-01-26T15:52:30.622Z,28.98
2023-01-26T15:56:53.506Z,27.42
2023-01-26T16:01:20.592Z,26.75
2023-01-26T16:05:44.452Z,27.77
2023-01-26T16:10:07.086Z,29.25
2023-01-26T16:14:28.829Z,30.92
2023-01-26T16:18:51.127Z,29.65
2023-01-26T16:23:24.046Z,27.88
2023-01-26T16:27:46.148Z,23.60
2023-01-26T16:32:29.576Z,26.48
2023-01-26T16:36:51.590Z,25.67
2023-01-26T16:41:19.679Z,30.08
2023-01-26T16:45:41.652Z,24.88
2023-01-26T16:50:03.994Z,24.73
2023-01-26T16:54:25.679Z,26.45
2023-01-26T16:58:48.257Z,25.27
2023-01-26T17:03:13.525Z,24.13
2023-01-26T17:08:14.959Z,26.92
2023-01-26T17:13:34.069Z,29.27
2023-01-26T17:24:35.495Z,28.60
2023-01-26T17:35:22.721Z,31.70
2023-01-26T17:41:29.874Z,28.80
2023-01-26T17:46:15.569Z,29.15
2023-01-26T17:50:37.656Z,29.60
2023-01-26T17:54:59.948Z,30.02
2023-01-26T17:59:22.267Z,31.23
2023-01-26T18:03:44.688Z,33.67
2023-01-26T18:08:07.269Z,30.67
2023-01-26T18:12:29.426Z,31.50
2023-01-26T18:16:51.717Z,29.75
2023-01-26T18:21:23.323Z,32.00
2023-01-26T18:25:46.024Z,31.80
2023-01-26T18:30:09.722Z,33.97
2023-01-26T18:34:33.386Z,32.53
2023-01-26T18:39:03.572Z,40.17
2023-01-26T18:43:32.407Z,43.65
2023-01-26T18:47:54.227Z,39.15
2023-01-26T18:52:16.331Z,42.03
2023-01-26T18:56:38.474Z,42.75
2023-01-26T19:01:10.613Z,45.22
2023-01-26T19:05:32.779Z,46.30
2023-01-26T19:09:55.007Z,46.47
2023-01-26T19:14:17.391Z,45.97
2023-01-26T19:18:39.401Z,52.13
2023-01-26T19:23:03.405Z,56.95
2023-01-26T19:27:25.567Z,59.33
2023-01-26T19:31:47.879Z,45.83
2023-01-26T19:36:10.246Z,60.78
2023-01-26T19:40:34.485Z,52.53
2023-01-26T19:44:56.227Z,48.45
2023-01-26T19:49:20.360Z,51.80
2023-01-26T19:53:46.239Z,53.22
2023-01-26T19:58:09.643Z,59.00
2023-01-26T20:02:31.872Z,49.90
2023-01-26T20:06:53.713Z,49.97
2023-01-26T20:11:17.087Z,49.47
2023-01-26T20:15:50.491Z,51.42
2023-01-26T20:20:22.629Z,48.80
2023-01-26T20:24:53.347Z,50.00
2023-01-26T20:29:19.154Z,52.00
2023-01-26T20:38:53.791Z,49.10
2023-01-26T20:43:18.925Z,46.90
2023-01-26T20:47:41.850Z,48.40
2023-01-26T20:52:08.487Z,50.05
2023-01-26T20:56:31.232Z,49.92
2023-01-26T21:00:53.243Z,47.28
2023-01-26T21:05:15.557Z,48.70
2023-01-26T21:09:37.788Z,46.75
2023-01-26T21:14:02.113Z,41.80
2023-01-26T21:18:24.348Z,42.97
2023-01-26T21:22:46.716Z,40.97
2023-01-26T21:27:08.967Z,45.85
2023-01-26T21:31:32.995Z,41.40
2023-01-26T21:36:00.107Z,42.78
2023-01-26T21:40:22.196Z,37.33
2023-01-26T21:45:02.809Z,42.47
2023-01-26T21:49:25.798Z,38.72
2023-01-26T21:53:48.075Z,37.58
2023-01-26T21:58:29.235Z,36.10
2023-01-26T22:02:51.511Z,33.08
2023-01-26T22:07:13.942Z,33.40
2023-01-26T22:11:36.763Z,33.05
2023-01-26T22:16:04.551Z,31.73
2023-01-26T22:20:26.928Z,32.15
2023-01-26T22:24:48.858Z,36.33
2023-01-26T22:29:15.046Z,37.92
2023-01-26T22:33:39.067Z,39.22
2023-01-26T22:38:01.384Z,42.30
2023-01-26T22:42:23.535Z,40.20
2023-01-26T22:46:45.568Z,41.47
2023-01-26T22:51:13.927Z,46.30
2023-01-26T22:55:43.327Z,48.28
2023-01-26T23:00:06.758Z,44.78
2023-01-26T23:04:28.989Z,48.47
2023-01-26T23:08:51.672Z,42.83
2023-01-26T23:13:14.115Z,39.38
2023-01-26T23:17:36.083Z,39.53
2023-01-26T23:21:58.249Z,38.85
2023-01-26T23:26:21.083Z,40.35
2023-01-26T23:30:43.442Z,38.75
2023-01-26T23:35:06.104Z,42.33
2023-01-26T23:39:28.289Z,43.28
2023-01-26T23:43:50.589Z,44.90
2023-01-26T23:48:13.477Z,43.50
2023-01-26T23:52:35.347Z,44.45
2023-01-26T23:56:57.417Z,42.42
